Time;durP1;ratioP1;P1;durP2;ratioP2;P2;SDS_P1;SDS_P2;PMS_P1;PMS_P2;Temp;Humidity;BMP_temperature;BMP_pressure;BME280_temperature;BME280_humidity;BME280_pressure;Samples;Min_cycle;Max_cycle;Signal;HPM_P1;HPM_P2
2022/01/11 00:01:27;;;;;;;19.35;8.98;;;;;;;-0.54;97.54;100790.56;5074653;28;20465;-72
2022/01/11 00:03:55;;;;;;;17.50;8.90;;;;;;;-0.58;97.92;100788.81;5074881;28;20047;-71
2022/01/11 00:06:35;;;;;;;19.88;8.77;;;;;;;-0.51;97.82;100797.53;5074409;28;20492;-72
2022/01/11 00:09:08;;;;;;;18.95;9.45;;;;;;;-0.50;97.44;100791.41;5074897;28;20048;-71
2022/01/11 00:11:37;;;;;;;15.05;7.20;;;;;;;-0.62;98.02;100795.84;5074373;28;20098;-72
2022/01/11 00:14:05;;;;;;;18.65;9.43;;;;;;;-0.48;97.15;100800.13;5074539;28;20041;-71
2022/01/11 00:16:33;;;;;;;21.55;9.68;;;;;;;-0.63;97.98;100801.97;5073973;28;20055;-71
2022/01/11 00:19:06;;;;;;;18.02;8.77;;;;;;;-0.61;97.55;100794.97;5056200;28;20044;-71
2022/01/11 00:21:43;;;;;;;19.70;9.35;;;;;;;-0.59;97.32;100803.69;5074336;28;20075;-71
2022/01/11 00:24:30;;;;;;;20.00;9.43;;;;;;;-0.65;98.00;100814.22;5074528;28;20040;-71
2022/01/11 00:27:00;;;;;;;16.75;8.30;;;;;;;-0.60;97.36;100812.41;5074519;28;20136;-70
2022/01/11 00:29:29;;;;;;;18.73;8.65;;;;;;;-0.57;97.07;100813.31;5073792;28;20068;-71
2022/01/11 00:32:01;;;;;;;20.85;8.93;;;;;;;-0.52;96.78;100812.38;5073993;28;20104;-71
2022/01/11 00:34:40;;;;;;;21.92;9.55;;;;;;;-0.63;96.81;100817.69;5073908;28;20144;-71
2022/01/11 00:37:09;;;;;;;16.83;8.75;;;;;;;-0.68;97.06;100822.06;5074369;28;20032;-71
2022/01/11 00:39:37;;;;;;;19.38;9.52;;;;;;;-0.70;97.17;100825.59;5073896;28;20044;-71
2022/01/11 00:42:07;;;;;;;18.23;9.23;;;;;;;-0.64;96.34;100830.81;5073972;28;20551;-71
2022/01/11 00:44:35;;;;;;;21.33;9.63;;;;;;;-0.61;96.34;100829.03;5073486;28;20041;-71
2022/01/11 00:47:08;;;;;;;19.00;9.02;;;;;;;-0.54;95.29;100834.25;5074262;28;20464;-71
2022/01/11 00:49:38;;;;;;;25.27;9.88;;;;;;;-0.60;95.22;100835.13;5073669;28;20048;-72
2022/01/11 00:52:09;;;;;;;17.45;7.97;;;;;;;-0.59;95.27;100840.38;5073958;28;20094;-70
2022/01/11 00:54:37;;;;;;;18.27;8.95;;;;;;;-0.57;95.06;100843.00;5073277;28;20374;-70
2022/01/11 00:57:06;;;;;;;19.30;8.57;;;;;;;-0.61;95.68;100842.13;5073820;28;20052;-72
2022/01/11 00:59:35;;;;;;;18.23;9.30;;;;;;;-0.56;94.60;100849.13;5073190;28;20052;-72
2022/01/11 01:02:03;;;;;;;18.63;8.98;;;;;;;-0.63;95.41;100858.75;5073907;28;20036;-73
2022/01/11 01:04:32;;;;;;;21.05;9.13;;;;;;;-0.60;94.53;100854.34;5073315;28;20043;-73
2022/01/11 01:07:00;;;;;;;18.05;8.45;;;;;;;-0.63;94.93;100858.75;5073398;28;20044;-70
2022/01/11 01:09:38;;;;;;;20.55;9.90;;;;;;;-0.63;95.31;100858.75;5072982;28;20045;-70
2022/01/11 01:12:08;;;;;;;17.52;8.13;;;;;;;-0.69;94.46;100859.63;5073352;28;20040;-71
2022/01/11 01:14:36;;;;;;;16.83;8.10;;;;;;;-0.69;94.30;100856.13;5072772;28;20063;-71
2022/01/11 01:17:05;;;;;;;19.25;9.48;;;;;;;-0.74;95.08;100866.66;5055009;28;20482;-72
2022/01/11 01:19:34;;;;;;;16.58;7.95;;;;;;;-0.71;94.29;100874.50;5073130;28;20036;-70
2022/01/11 01:22:03;;;;;;;19.02;8.93;;;;;;;-0.74;94.31;100871.91;5073198;28;20041;-71
2022/01/11 01:24:33;;;;;;;18.33;8.70;;;;;;;-0.57;92.68;100874.44;5072776;28;20546;-70
2022/01/11 01:27:01;;;;;;;20.23;8.80;;;;;;;-0.68;92.72;100874.47;5073329;28;20041;-70
2022/01/11 01:29:29;;;;;;;18.25;8.18;;;;;;;-0.71;92.55;100881.47;5073061;28;20090;-72
2022/01/11 01:31:58;;;;;;;20.13;9.20;;;;;;;-0.77;93.58;100882.41;5072857;28;20052;-72
2022/01/11 01:34:27;;;;;;;18.02;8.77;;;;;;;-0.75;92.99;100880.63;5073045;28;20040;-72
2022/01/11 01:36:55;;;;;;;18.00;8.73;;;;;;;-0.85;93.13;100873.69;5073178;28;20123;-70
2022/01/11 01:39:25;;;;;;;19.02;8.57;;;;;;;-0.77;92.32;100882.41;5072869;28;20055;-72
2022/01/11 01:41:54;;;;;;;20.27;8.45;;;;;;;-0.87;93.19;100872.81;5073213;28;20059;-71
2022/01/11 01:44:25;;;;;;;19.40;8.40;;;;;;;-0.80;92.26;100876.28;5072927;28;20461;-76
2022/01/11 01:46:53;;;;;;;15.48;8.38;;;;;;;-0.87;91.92;100871.09;5073285;28;20404;-71
2022/01/11 01:49:23;;;;;;;18.23;8.70;;;;;;;-0.83;91.90;100871.94;5073102;28;20040;-70
2022/01/11 01:51:52;;;;;;;20.23;8.45;;;;;;;-0.79;91.23;100872.78;5073136;28;20046;-72
2022/01/11 01:54:21;;;;;;;17.35;8.82;;;;;;;-0.89;91.52;100877.19;5073028;28;20052;-72
2022/01/11 01:56:49;;;;;;;16.48;8.18;;;;;;;-0.84;90.17;100875.44;5072859;28;20048;-73
2022/01/11 01:59:19;;;;;;;16.05;8.23;;;;;;;-0.91;91.02;100876.31;5073088;28;20041;-69
2022/01/11 02:01:48;;;;;;;20.38;8.35;;;;;;;-0.81;90.60;100878.03;5072782;28;20048;-71
2022/01/11 02:04:18;;;;;;;17.15;7.47;;;;;;;-0.80;89.91;100882.38;5072646;28;20115;-70
2022/01/11 02:06:47;;;;;;;16.10;7.65;;;;;;;-0.81;90.54;100885.88;5072724;28;20079;-71
2022/01/11 02:09:16;;;;;;;18.00;8.35;;;;;;;-0.80;90.70;100881.53;5072630;28;20094;-70
2022/01/11 02:11:46;;;;;;;17.23;8.25;;;;;;;-0.85;90.88;100884.16;5072265;28;20051;-72
2022/01/11 02:14:15;;;;;;;18.05;8.43;;;;;;;-0.89;91.06;100882.41;5073486;28;20037;-72
2022/01/11 02:16:44;;;;;;;20.92;9.27;;;;;;;-0.98;91.51;100882.44;5072147;28;20045;-72
2022/01/11 02:19:15;;;;;;;17.25;7.95;;;;;;;-1.06;91.87;100884.22;5072524;28;20045;-72
2022/01/11 02:21:45;;;;;;;20.77;8.52;;;;;;;-1.10;92.67;100882.50;5072580;28;20845;-72
2022/01/11 02:24:13;;;;;;;17.02;8.23;;;;;;;-1.03;92.13;100889.47;5072394;28;20044;-72
2022/01/11 02:26:42;;;;;;;18.13;8.68;;;;;;;-1.04;92.06;100890.34;5072371;28;20052;-71
2022/01/11 02:29:10;;;;;;;16.85;7.95;;;;;;;-1.15;93.40;100885.13;5073981;28;20059;-71
2022/01/11 02:31:39;;;;;;;15.90;7.53;;;;;;;-1.12;93.22;100884.25;5076016;28;20045;-72
2022/01/11 02:34:09;;;;;;;16.98;8.35;;;;;;;-1.19;92.92;100879.00;5076372;28;20036;-71
2022/01/11 02:36:38;;;;;;;18.67;8.75;;;;;;;-1.08;92.67;100885.97;5076110;28;20049;-72
2022/01/11 02:39:08;;;;;;;19.45;8.52;;;;;;;-1.23;93.44;100885.16;5076570;28;20045;-72
2022/01/11 02:41:36;;;;;;;20.48;8.50;;;;;;;-1.27;94.18;100891.25;5075854;28;20037;-73
2022/01/11 02:44:05;;;;;;;18.00;8.15;;;;;;;-1.16;93.01;100885.97;5058444;28;20059;-72
2022/01/11 02:46:34;;;;;;;17.67;8.13;;;;;;;-1.21;93.14;100879.91;5076039;28;20072;-72
2022/01/11 02:49:02;;;;;;;17.15;8.38;;;;;;;-1.33;94.20;100882.56;5075900;28;20519;-71
2022/01/11 02:51:30;;;;;;;16.88;8.13;;;;;;;-1.29;93.58;100881.66;5075578;28;20497;-72
2022/01/11 02:53:59;;;;;;;15.00;7.90;;;;;;;-1.27;93.31;100888.63;5076253;28;20091;-71
2022/01/11 02:56:29;;;;;;;17.10;8.82;;;;;;;-1.28;93.56;100884.28;5075446;28;20044;-74
2022/01/11 02:58:58;;;;;;;16.00;8.00;;;;;;;-1.28;93.32;100889.50;5076220;28;20044;-72
2022/01/11 03:01:26;;;;;;;15.52;7.80;;;;;;;-1.25;93.40;100894.75;5061499;28;20055;-71
2022/01/11 03:03:55;;;;;;;17.92;7.88;;;;;;;-1.31;93.57;100896.50;5076216;28;20044;-72
2022/01/11 03:06:24;;;;;;;18.67;8.50;;;;;;;-1.33;93.80;100900.88;5076039;28;20040;-69
2022/01/11 03:08:52;;;;;;;16.13;8.05;;;;;;;-1.45;94.78;100901.72;5075843;28;20072;-70
2022/01/11 03:11:24;;;;;;;19.77;8.15;;;;;;;-1.28;93.84;100904.34;5075907;28;20562;-71
2022/01/11 03:13:54;;;;;;;16.63;7.90;;;;;;;-1.21;93.25;100911.31;5076265;28;20044;-70
2022/01/11 03:16:22;;;;;;;17.55;8.27;;;;;;;-1.34;94.08;100915.72;5057682;28;20477;-69
2022/01/11 03:18:50;;;;;;;14.88;8.00;;;;;;;-1.33;93.99;100916.56;5075141;28;20048;-71
2022/01/11 03:21:19;;;;;;;18.00;8.13;;;;;;;-1.25;93.43;100910.47;5075671;28;20037;-71
2022/01/11 03:23:48;;;;;;;16.33;7.40;;;;;;;-1.36;94.01;100917.44;5075987;28;20044;-71
2022/01/11 03:26:18;;;;;;;18.15;8.50;;;;;;;-1.29;93.30;100916.56;5075581;28;20481;-71
2022/01/11 03:28:47;;;;;;;16.98;8.10;;;;;;;-1.30;93.27;100920.06;5075267;28;20049;-71
2022/01/11 03:31:23;;;;;;;19.02;8.35;;;;;;;-1.40;93.67;100926.16;5075197;28;20448;-71
2022/01/11 03:33:51;;;;;;;15.13;7.53;;;;;;;-1.46;94.12;100931.41;5075225;28;20087;-70
2022/01/11 03:36:19;;;;;;;19.58;8.18;;;;;;;-1.50;94.38;100927.91;5075140;28;20378;-71
2022/01/11 03:38:48;;;;;;;17.67;8.70;;;;;;;-1.44;93.87;100932.28;5075877;28;20041;-72
2022/01/11 03:41:16;;;;;;;19.05;8.50;;;;;;;-1.55;94.77;100939.25;5074605;28;20045;-71
2022/01/11 03:43:44;;;;;;;17.42;8.43;;;;;;;-1.65;95.90;100940.97;5075069;28;20156;-71
2022/01/11 03:46:12;;;;;;;16.63;8.20;;;;;;;-1.52;94.57;100948.00;5075149;28;20053;-71
2022/01/11 03:48:42;;;;;;;18.85;7.97;;;;;;;-1.43;93.77;100944.50;5074844;28;20040;-70
2022/01/11 03:51:11;;;;;;;18.92;7.85;;;;;;;-1.54;94.56;100948.88;5075119;28;20036;-72
2022/01/11 03:53:52;;;;;;;18.17;8.50;;;;;;;-1.49;94.37;100949.72;5074510;28;20049;-72
2022/01/11 03:56:23;;;;;;;15.82;7.65;;;;;;;-1.49;93.93;100952.34;5074849;28;20036;-72
2022/01/11 03:58:51;;;;;;;18.27;8.05;;;;;;;-1.59;94.31;100955.81;5074832;28;20585;-72
2022/01/11 04:01:20;;;;;;;19.08;7.63;;;;;;;-1.56;94.49;100963.66;5075025;28;20045;-71
2022/01/11 04:03:50;;;;;;;17.55;7.90;;;;;;;-1.63;94.96;100961.94;5074581;28;20070;-72
2022/01/11 04:06:18;;;;;;;18.70;8.45;;;;;;;-1.65;95.63;100961.03;5074488;28;20091;-70
2022/01/11 04:08:47;;;;;;;17.90;7.95;;;;;;;-1.66;95.67;100960.16;5074495;28;20052;-72
2022/01/11 04:11:16;;;;;;;18.85;8.73;;;;;;;-1.71;95.69;100961.94;5074746;28;20110;-71
2022/01/11 04:13:45;;;;;;;18.13;8.15;;;;;;;-1.70;95.88;100963.66;5074062;28;20041;-72
2022/01/11 04:16:13;;;;;;;17.70;7.97;;;;;;;-1.63;95.57;100969.78;5074641;28;20041;-71
2022/01/11 04:18:42;;;;;;;18.70;8.25;;;;;;;-1.65;95.12;100966.28;5074334;28;20420;-72
2022/01/11 04:21:14;;;;;;;15.70;7.38;;;;;;;-1.64;95.54;100968.91;5074564;28;20044;-71
2022/01/11 04:23:42;;;;;;;22.40;8.55;;;;;;;-1.74;95.76;100967.13;5074235;28;20078;-70
2022/01/11 04:26:11;;;;;;;17.95;8.13;;;;;;;-1.73;95.84;100974.13;5074566;28;20047;-72
2022/01/11 04:28:39;;;;;;;16.73;8.50;;;;;;;-1.68;94.74;100979.34;5074087;28;20067;-73
2022/01/11 04:31:07;;;;;;;16.55;8.27;;;;;;;-1.82;95.32;100975.00;5073946;28;20075;-70
2022/01/11 04:33:35;;;;;;;18.63;8.82;;;;;;;-1.71;94.53;100982.84;5074103;28;20048;-71
2022/01/11 04:36:04;;;;;;;18.35;8.50;;;;;;;-1.77;94.84;100986.31;5074339;28;20048;-72
2022/01/11 04:38:33;;;;;;;19.02;9.27;;;;;;;-1.85;94.90;100990.66;5073877;28;20123;-72
2022/01/11 04:41:02;;;;;;;19.52;9.25;;;;;;;-1.83;95.24;100988.94;5074129;28;20044;-72
2022/01/11 04:43:31;;;;;;;18.08;8.88;;;;;;;-1.90;94.81;100986.31;5074115;28;20056;-72
2022/01/11 04:45:59;;;;;;;19.52;9.00;;;;;;;-1.81;94.02;101002.88;5073897;28;20045;-72
2022/01/11 04:48:32;;;;;;;21.30;8.43;;;;;;;-1.85;93.64;101006.34;5073963;28;20041;-71
2022/01/11 04:51:01;;;;;;;17.75;8.70;;;;;;;-1.96;94.18;101000.22;5074028;28;20454;-71
2022/01/11 04:53:29;;;;;;;16.73;8.18;;;;;;;-1.79;91.98;101008.13;5073630;28;20481;-72
2022/01/11 04:55:59;;;;;;;18.13;7.88;;;;;;;-1.87;92.32;101010.72;5055814;28;20052;-72
2022/01/11 04:58:27;;;;;;;16.60;7.53;;;;;;;-1.90;91.48;101023.78;5073470;28;20062;-72
2022/01/11 05:00:56;;;;;;;19.17;7.90;;;;;;;-1.83;90.91;101014.22;5073531;28;20121;-72
2022/01/11 05:03:25;;;;;;;19.52;8.68;;;;;;;-1.93;91.74;101029.00;5073690;28;20052;-72
2022/01/11 05:05:53;;;;;;;17.80;7.97;;;;;;;-1.95;91.62;101025.50;5073016;28;20501;-74
2022/01/11 05:08:22;;;;;;;17.42;8.15;;;;;;;-2.02;92.24;101036.81;5073248;28;20396;-73
2022/01/11 05:10:50;;;;;;;20.58;8.70;;;;;;;-1.99;92.45;101028.13;5073288;28;20075;-71
2022/01/11 05:13:21;;;;;;;17.05;8.43;;;;;;;-2.00;92.61;101042.06;5073533;28;20492;-71
2022/01/11 05:15:52;;;;;;;19.25;8.60;;;;;;;-2.17;93.45;101044.59;5072972;28;20123;-72
2022/01/11 05:18:20;;;;;;;18.23;8.23;;;;;;;-2.08;93.03;101042.91;5073584;28;20032;-72
2022/01/11 05:20:49;;;;;;;20.17;8.73;;;;;;;-2.13;93.63;101048.97;5073014;28;20044;-72
2022/01/11 05:23:17;;;;;;;17.85;8.25;;;;;;;-2.19;93.42;101046.34;5073410;28;20047;-71
2022/01/11 05:25:45;;;;;;;18.10;8.10;;;;;;;-2.13;92.72;101056.78;5073030;28;20047;-71
2022/01/11 05:28:14;;;;;;;19.35;8.50;;;;;;;-2.12;92.14;101059.44;5055580;28;20056;-71
2022/01/11 05:30:43;;;;;;;18.23;8.02;;;;;;;-2.12;92.43;101063.81;5072838;28;20119;-71
2022/01/11 05:33:11;;;;;;;21.73;8.98;;;;;;;-2.27;93.15;101067.19;5073423;28;20064;-71
2022/01/11 05:35:40;;;;;;;21.40;9.55;;;;;;;-2.24;92.92;101074.19;5072756;28;20045;-72
2022/01/11 05:38:10;;;;;;;20.15;8.80;;;;;;;-2.32;93.43;101088.09;5073352;28;20048;-70
2022/01/11 05:40:39;;;;;;;18.52;8.40;;;;;;;-2.28;93.34;101088.09;5073165;28;20044;-71
2022/01/11 05:43:07;;;;;;;18.52;8.38;;;;;;;-2.22;93.09;101094.25;5072725;28;20062;-71
2022/01/11 05:45:35;;;;;;;18.30;8.68;;;;;;;-2.32;93.51;101108.09;5072801;28;20047;-71
2022/01/11 05:48:06;;;;;;;17.80;9.10;;;;;;;-2.41;93.61;101098.50;5073030;28;20087;-72
2022/01/11 05:50:35;;;;;;;20.88;8.85;;;;;;;-2.50;94.75;101102.78;5073123;28;20040;-72
2022/01/11 05:53:03;;;;;;;19.45;9.45;;;;;;;-2.55;95.81;101107.97;5072374;28;20082;-73
2022/01/11 05:55:32;;;;;;;19.08;9.02;;;;;;;-2.53;95.87;101116.69;5072819;28;20072;-72
2022/01/11 05:58:01;;;;;;;17.50;8.25;;;;;;;-2.37;94.32;101121.16;5072161;28;20044;-71
2022/01/11 06:00:30;;;;;;;19.50;8.52;;;;;;;-2.34;93.76;101122.91;5072785;28;20401;-71
2022/01/11 06:02:58;;;;;;;16.85;8.15;;;;;;;-2.43;94.61;101121.09;5073646;28;20115;-72
2022/01/11 06:05:28;;;;;;;19.17;9.20;;;;;;;-2.47;94.49;101118.47;5076727;28;20434;-72
2022/01/11 06:07:57;;;;;;;21.40;9.63;;;;;;;-2.36;94.22;101122.03;5076973;28;20040;-72
2022/01/11 06:10:25;;;;;;;21.50;9.20;;;;;;;-2.45;94.68;101127.19;5076858;28;20044;-72
2022/01/11 06:12:53;;;;;;;20.75;8.82;;;;;;;-2.52;95.40;101126.25;5076365;28;20044;-70
2022/01/11 06:15:21;;;;;;;20.92;9.20;;;;;;;-2.62;95.73;101134.91;5058549;28;20049;-71
2022/01/11 06:17:50;;;;;;;19.45;8.35;;;;;;;-2.65;96.37;101145.34;5076320;28;20048;-71
2022/01/11 06:20:18;;;;;;;20.13;8.60;;;;;;;-2.51;95.48;101148.03;5076878;28;20393;-69
2022/01/11 06:22:48;;;;;;;19.42;8.65;;;;;;;-2.50;95.23;101149.81;5076114;28;20123;-71
2022/01/11 06:25:18;;;;;;;21.05;9.77;;;;;;;-2.49;94.77;101155.03;5076542;28;20047;-69
2022/01/11 06:27:47;;;;;;;19.17;9.10;;;;;;;-2.57;96.57;101161.06;5076244;28;20447;-71
2022/01/11 06:30:17;;;;;;;21.90;9.45;;;;;;;-2.44;95.66;101163.78;5076543;28;20039;-69
2022/01/11 06:32:46;;;;;;;20.30;9.05;;;;;;;-2.49;96.42;101177.69;5075626;28;20056;-68
2022/01/11 06:35:17;;;;;;;20.90;9.73;;;;;;;-2.48;96.35;101180.31;5075920;28;20044;-69
2022/01/11 06:37:46;;;;;;;20.95;10.27;;;;;;;-2.66;97.40;101164.47;5075737;28;20040;-71
2022/01/11 06:40:18;;;;;;;22.35;9.43;;;;;;;-2.65;97.39;101182.78;5076672;28;20051;-70
2022/01/11 06:42:46;;;;;;;24.17;9.98;;;;;;;-2.50;96.26;101187.25;5076243;28;20091;-70
2022/01/11 06:45:15;;;;;;;21.50;9.90;;;;;;;-2.52;96.66;101194.19;5076274;28;20048;-69
2022/01/11 06:47:44;;;;;;;22.42;10.10;;;;;;;-2.57;96.79;101190.69;5076383;28;20044;-69
2022/01/11 06:50:12;;;;;;;18.77;9.27;;;;;;;-2.49;95.80;101196.84;5076104;28;20489;-70
2022/01/11 06:52:43;;;;;;;23.70;10.30;;;;;;;-2.53;95.74;101194.19;5076391;28;20576;-68
2022/01/11 06:55:12;;;;;;;22.10;9.18;;;;;;;-2.54;96.17;101202.88;5076295;28;20079;-68
2022/01/11 06:57:42;;;;;;;24.30;10.23;;;;;;;-2.53;95.29;101202.00;5076065;28;20045;-69
2022/01/11 07:00:11;;;;;;;20.20;9.73;;;;;;;-2.62;96.16;101203.69;5076305;28;20123;-69
2022/01/11 07:02:40;;;;;;;24.50;10.18;;;;;;;-2.56;95.94;101208.09;5076329;28;20051;-69
2022/01/11 07:05:09;;;;;;;19.40;9.63;;;;;;;-2.49;94.59;101209.91;5075784;28;20469;-69
2022/01/11 07:07:38;;;;;;;21.52;9.10;;;;;;;-2.49;94.11;101215.13;5075892;28;20090;-69
2022/01/11 07:10:07;;;;;;;19.67;9.45;;;;;;;-2.50;93.26;101213.38;5075730;28;20037;-70
2022/01/11 07:12:37;;;;;;;17.40;8.88;;;;;;;-2.55;93.53;101215.06;5076066;28;20056;-69
2022/01/11 07:15:08;;;;;;;19.42;8.85;;;;;;;-2.41;92.10;101215.19;5057190;28;20444;-69
2022/01/11 07:17:36;;;;;;;18.77;9.20;;;;;;;-2.39;91.42;101224.81;5075702;28;20036;-68
2022/01/11 07:20:06;;;;;;;18.02;8.40;;;;;;;-2.38;91.33;101221.31;5057496;28;20099;-69
2022/01/11 07:22:36;;;;;;;19.70;9.27;;;;;;;-2.34;90.29;101230.91;5075721;28;20396;-68
2022/01/11 07:25:05;;;;;;;19.20;9.50;;;;;;;-2.26;89.80;101227.50;5075574;28;20477;-69
2022/01/11 07:27:34;;;;;;;20.48;8.82;;;;;;;-2.31;90.45;101236.19;5075443;28;20048;-68
2022/01/11 07:30:03;;;;;;;22.73;10.05;;;;;;;-2.23;90.12;101233.63;5075197;28;20047;-68
2022/01/11 07:32:35;;;;;;;21.35;9.82;;;;;;;-2.25;90.51;101240.56;5057445;28;20067;-69
2022/01/11 07:35:03;;;;;;;19.75;9.23;;;;;;;-2.14;89.16;101240.66;5057031;28;20052;-68
2022/01/11 07:37:32;;;;;;;23.58;11.20;;;;;;;-2.17;89.94;101243.25;5075131;28;20128;-69
2022/01/11 07:40:00;;;;;;;20.77;9.10;;;;;;;-2.11;89.45;101240.69;5075262;28;20047;-71
2022/01/11 07:42:28;;;;;;;21.05;9.63;;;;;;;-2.15;89.47;101245.00;5075340;28;20044;-68
2022/01/11 07:44:57;;;;;;;20.00;10.02;;;;;;;-2.03;88.42;101246.81;5074765;28;20044;-69
2022/01/11 07:47:25;;;;;;;21.13;9.25;;;;;;;-2.04;88.63;101245.06;5075417;28;20528;-69
2022/01/11 07:49:54;;;;;;;19.33;8.73;;;;;;;-1.92;87.20;101252.16;5075001;28;20044;-69
2022/01/11 07:52:23;;;;;;;21.00;9.05;;;;;;;-1.94;86.72;101252.13;5075038;28;20083;-70
2022/01/11 07:54:52;;;;;;;20.92;9.85;;;;;;;-1.83;86.33;101254.84;5074563;28;20051;-72
2022/01/11 07:57:20;;;;;;;20.67;9.32;;;;;;;-1.75;85.50;101251.38;5075024;28;20045;-70
2022/01/11 07:59:49;;;;;;;22.30;10.05;;;;;;;-1.78;85.06;101259.22;5074603;28;20435;-68
2022/01/11 08:02:23;;;;;;;19.42;9.05;;;;;;;-1.79;84.68;101252.22;5077946;28;20071;-69
2022/01/11 08:04:53;;;;;;;23.30;9.68;;;;;;;-1.79;84.00;101251.34;5074873;28;20124;-69
2022/01/11 08:07:23;;;;;;;19.45;9.05;;;;;;;-1.77;84.04;101258.34;5074879;28;20133;-69
2022/01/11 08:09:51;;;;;;;20.67;9.27;;;;;;;-1.68;83.49;101261.88;5075043;28;20041;-68
2022/01/11 08:12:19;;;;;;;21.75;9.60;;;;;;;-1.57;82.30;101268.03;5074772;28;20454;-68
2022/01/11 08:14:49;;;;;;;24.15;9.70;;;;;;;-1.51;82.35;101268.09;5076017;28;20079;-69
2022/01/11 08:17:17;;;;;;;17.95;8.70;;;;;;;-1.50;81.24;101265.47;5074495;28;20048;-69
2022/01/11 08:19:46;;;;;;;18.52;8.82;;;;;;;-1.42;80.85;101270.75;5056722;28;20074;-69
2022/01/11 08:22:14;;;;;;;21.67;9.77;;;;;;;-1.36;80.46;101273.38;5074096;28;20040;-69
2022/01/11 08:24:44;;;;;;;22.52;9.60;;;;;;;-1.33;79.97;101270.78;5074329;28;20133;-69
2022/01/11 08:27:14;;;;;;;22.17;9.88;;;;;;;-1.29;80.43;101275.16;5074710;28;20044;-69
2022/01/11 08:29:43;;;;;;;21.50;9.88;;;;;;;-1.30;80.29;101278.66;5074312;28;20091;-69
2022/01/11 08:32:12;;;;;;;19.67;9.60;;;;;;;-1.18;80.06;101283.94;5073893;28;20059;-69
2022/01/11 08:34:40;;;;;;;23.08;9.93;;;;;;;-1.13;79.78;101280.47;5074261;28;20051;-69
2022/01/11 08:37:09;;;;;;;19.90;9.15;;;;;;;-1.10;79.51;101285.72;5073918;28;20041;-69
2022/01/11 08:39:38;;;;;;;18.58;9.45;;;;;;;-1.01;78.97;101285.75;5073805;28;20032;-69
2022/01/11 08:42:12;;;;;;;18.70;9.27;;;;;;;-0.96;78.82;101291.91;5073936;28;20058;-68
2022/01/11 08:44:40;;;;;;;20.70;10.65;;;;;;;-0.93;78.96;101281.41;5074345;28;20048;-69
2022/01/11 08:47:09;;;;;;;18.70;9.18;;;;;;;-0.84;78.05;101289.31;5073929;28;20044;-68
2022/01/11 08:49:37;;;;;;;17.05;8.68;;;;;;;-0.86;78.33;101285.81;5074045;28;20481;-69
2022/01/11 08:52:08;;;;;;;22.60;9.73;;;;;;;-0.78;78.01;101284.06;5073773;28;20041;-68
2022/01/11 08:54:37;;;;;;;23.65;9.85;;;;;;;-0.70;77.74;101279.72;5074019;28;20052;-69
2022/01/11 08:57:07;;;;;;;18.80;8.80;;;;;;;-0.70;77.73;101279.72;5073449;28;20048;-69
2022/01/11 08:59:35;;;;;;;19.05;9.10;;;;;;;-0.55;76.64;101289.38;5073811;28;20397;-68
2022/01/11 09:02:05;;;;;;;19.27;8.38;;;;;;;-0.26;74.49;101281.53;5073671;28;20068;-68
2022/01/11 09:04:34;;;;;;;16.42;7.80;;;;;;;-0.16;72.41;101285.03;5073535;28;20544;-69
2022/01/11 09:07:02;;;;;;;18.25;8.63;;;;;;;-0.13;72.25;101292.91;5073036;28;20048;-70
2022/01/11 09:09:32;;;;;;;21.25;8.93;;;;;;;-0.04;71.52;101282.41;5073603;28;20047;-68
2022/01/11 09:12:03;;;;;;;18.50;8.35;;;;;;;0.01;71.37;101292.91;5073566;28;20036;-69
2022/01/11 09:14:33;;;;;;;17.63;8.45;;;;;;;0.06;70.88;101313.00;5073794;28;20393;-69
2022/01/11 09:17:02;;;;;;;14.60;7.45;;;;;;;0.05;70.15;101292.03;5073414;28;20047;-69
2022/01/11 09:19:32;;;;;;;16.95;7.70;;;;;;;0.21;69.86;101285.91;5073544;28;20059;-68
2022/01/11 09:22:01;;;;;;;16.25;6.90;;;;;;;0.18;69.64;101301.63;5073296;28;20050;-68
2022/01/11 09:24:36;;;;;;;16.92;8.25;;;;;;;0.27;70.40;101291.09;5073605;28;20477;-68
2022/01/11 09:27:05;;;;;;;16.48;8.30;;;;;;;0.27;70.47;101293.72;5073285;28;20040;-68
2022/01/11 09:29:37;;;;;;;18.23;7.65;;;;;;;0.26;70.02;101305.97;5073590;28;20119;-69
2022/01/11 09:32:08;;;;;;;18.90;8.10;;;;;;;0.17;69.87;101286.75;5073058;28;20048;-68
2022/01/11 09:34:39;;;;;;;15.88;8.77;;;;;;;0.23;69.04;101292.00;5073481;28;20283;-69
2022/01/11 09:37:08;;;;;;;17.23;8.38;;;;;;;0.24;68.84;101285.88;5073051;28;20040;-69
2022/01/11 09:39:38;;;;;;;19.20;7.85;;;;;;;0.26;68.50;101292.00;5072854;28;20049;-69
2022/01/11 09:42:07;;;;;;;18.77;8.13;;;;;;;0.29;68.43;101292.00;5055400;28;20432;-70
2022/01/11 09:44:39;;;;;;;20.38;9.82;;;;;;;0.31;68.55;101276.25;5073133;28;20055;-68
2022/01/11 09:47:09;;;;;;;23.48;10.00;;;;;;;0.33;68.44;101279.75;5073070;28;20462;-70
2022/01/11 09:49:37;;;;;;;18.13;9.82;;;;;;;0.42;68.06;101280.59;5073054;28;20465;-69
2022/01/11 09:52:07;;;;;;;19.65;8.77;;;;;;;0.42;68.05;101275.34;5072973;28;20068;-69
2022/01/11 09:54:36;;;;;;;17.70;7.72;;;;;;;0.46;67.44;101277.06;5073263;28;20040;-69
2022/01/11 09:57:05;;;;;;;19.85;8.07;;;;;;;0.49;67.05;101277.09;5072904;28;20048;-70
2022/01/11 09:59:37;;;;;;;18.67;8.60;;;;;;;0.65;66.73;101277.03;5072979;28;20076;-68
2022/01/11 10:02:05;;;;;;;16.63;8.02;;;;;;;0.67;66.85;101280.50;5073080;28;20102;-70
2022/01/11 10:04:36;;;;;;;17.23;8.50;;;;;;;0.64;66.81;101267.41;5072684;28;20489;-68
2022/01/11 10:07:06;;;;;;;14.85;6.68;;;;;;;0.74;66.76;101266.47;5072741;28;20045;-68
2022/01/11 10:09:44;;;;;;;16.75;6.95;;;;;;;0.79;66.74;101264.72;5073091;28;20370;-69
2022/01/11 10:12:13;;;;;;;16.60;7.43;;;;;;;0.82;66.03;101265.56;5072496;28;20045;-69
2022/01/11 10:14:49;;;;;;;13.43;6.78;;;;;;;0.88;66.06;101264.69;5073088;28;20114;-69
2022/01/11 10:17:19;;;;;;;13.00;6.50;;;;;;;0.91;65.72;101266.44;5072825;28;20426;-70
2022/01/11 10:19:49;;;;;;;16.83;7.85;;;;;;;0.97;65.87;101259.41;5073089;28;20044;-69
2022/01/11 10:22:19;;;;;;;14.43;7.03;;;;;;;1.01;65.84;101263.75;5072652;28;20044;-69
2022/01/11 10:24:49;;;;;;;12.88;6.55;;;;;;;1.06;65.62;101266.34;5073011;28;20124;-70
2022/01/11 10:27:20;;;;;;;17.30;7.32;;;;;;;0.99;65.82;101262.88;5072939;28;20048;-69
2022/01/11 10:29:51;;;;;;;14.13;6.65;;;;;;;1.16;65.20;101270.69;5055015;28;20078;-69
2022/01/11 10:32:27;;;;;;;15.93;6.53;;;;;;;1.17;65.44;101263.69;5072139;28;20053;-68
2022/01/11 10:34:59;;;;;;;15.95;7.25;;;;;;;1.18;65.84;101262.78;5072783;28;20075;-69
2022/01/11 10:37:35;;;;;;;14.82;6.57;;;;;;;1.34;64.95;101265.28;5072614;28;20443;-69
2022/01/11 10:40:10;;;;;;;16.77;6.82;;;;;;;1.39;64.83;101260.91;5072299;28;20424;-71
2022/01/11 10:42:45;;;;;;;13.73;6.85;;;;;;;1.39;64.52;101253.00;5072911;28;20052;-68
2022/01/11 10:45:21;;;;;;;13.80;6.63;;;;;;;1.44;64.31;101260.84;5072277;28;20481;-69
2022/01/11 10:47:51;;;;;;;13.73;6.53;;;;;;;1.46;64.74;101269.63;5072794;28;20040;-69
2022/01/11 10:50:25;;;;;;;16.75;7.78;;;;;;;1.50;64.69;101262.56;5074159;28;20090;-69
2022/01/11 10:52:55;;;;;;;13.63;7.00;;;;;;;1.53;65.10;101255.53;5076450;28;20045;-69
2022/01/11 10:55:25;;;;;;;15.20;6.90;;;;;;;1.62;65.05;101262.47;5076139;28;20486;-68
2022/01/11 10:57:55;;;;;;;13.77;6.55;;;;;;;1.54;64.80;101267.78;5076409;28;20045;-69
2022/01/11 11:00:28;;;;;;;13.27;6.05;;;;;;;1.53;64.61;101266.03;5075957;28;20048;-70
2022/01/11 11:02:58;;;;;;;;;;;;;;;1.56;64.50;101271.31;5076730;28;20044;-68
2022/01/11 11:05:30;;;;;;;12.93;6.15;;;;;;;1.49;65.11;101266.97;5076011;28;19970;-70
2022/01/11 11:08:17;;;;;;;13.77;6.90;;;;;;;1.59;64.65;101266.00;5076218;28;20413;-69
2022/01/11 11:10:50;;;;;;;16.50;6.90;;;;;;;1.66;64.98;101257.19;5058590;28;20431;-70
2022/01/11 11:13:23;;;;;;;15.55;6.97;;;;;;;1.68;64.17;101255.44;5075415;28;20044;-69
2022/01/11 11:15:55;;;;;;;12.57;6.85;;;;;;;1.68;64.59;101260.69;5075833;28;20119;-68
2022/01/11 11:18:30;;;;;;;13.45;6.88;;;;;;;1.70;64.81;101261.53;5075778;28;20098;-69
2022/01/11 11:21:13;;;;;;;13.05;6.60;;;;;;;1.73;64.47;101260.63;5076033;28;20040;-69
2022/01/11 11:23:41;;;;;;;10.77;5.37;;;;;;;1.80;64.22;101258.84;5075976;28;20048;-70
2022/01/11 11:26:11;;;;;;;12.68;6.28;;;;;;;1.79;64.02;101254.47;5075498;28;20473;-69
2022/01/11 11:28:39;;;;;;;12.60;6.25;;;;;;;1.83;63.99;101253.53;5075666;28;20045;-69
2022/01/11 11:31:09;;;;;;;15.38;6.60;;;;;;;1.85;63.53;101257.06;5075299;28;20045;-73